sensor_id;sensor_type;location;lat;lon;timestamp;P1;durP1;ratioP1;P2;durP2;ratioP2
19113;SDS011;9689;51.052;13.772;2023-06-24T00:01:30;17.15;;;9.30;;
19113;SDS011;9689;51.052;13.772;2023-06-24T00:06:32;15.80;;;9.93;;
19113;SDS011;9689;51.052;13.772;2023-06-24T00:11:35;13.02;;;8.82;;
19113;SDS011;9689;51.052;13.772;2023-06-24T00:16:35;16.70;;;9.05;;
19113;SDS011;9689;51.052;13.772;2023-06-24T00:21:36;14.45;;;8.25;;
19113;SDS011;9689;51.052;13.772;2023-06-24T00:26:38;14.43;;;9.48;;
19113;SDS011;9689;51.052;13.772;2023-06-24T00:31:39;13.73;;;9.32;;
19113;SDS011;9689;51.052;13.772;2023-06-24T00:36:39;17.77;;;10.43;;
19113;SDS011;9689;51.052;13.772;2023-06-24T00:41:41;17.58;;;10.02;;
19113;SDS011;9689;51.052;13.772;2023-06-24T00:46:43;19.80;;;11.57;;
19113;SDS011;9689;51.052;13.772;2023-06-24T00:51:43;22.90;;;11.85;;
19113;SDS011;9689;51.052;13.772;2023-06-24T00:56:48;23.85;;;12.00;;
19113;SDS011;9689;51.052;13.772;2023-06-24T01:01:50;22.08;;;12.95;;
19113;SDS011;9689;51.052;13.772;2023-06-24T01:06:52;22.48;;;13.23;;
19113;SDS011;9689;51.052;13.772;2023-06-24T01:11:54;21.88;;;13.43;;
19113;SDS011;9689;51.052;13.772;2023-06-24T01:16:56;21.95;;;12.05;;
19113;SDS011;9689;51.052;13.772;2023-06-24T01:22:06;19.58;;;13.35;;
19113;SDS011;9689;51.052;13.772;2023-06-24T01:27:22;32.50;;;14.95;;
19113;SDS011;9689;51.052;13.772;2023-06-24T01:32:33;26.48;;;14.55;;
19113;SDS011;9689;51.052;13.772;2023-06-24T01:37:40;25.85;;;14.00;;
19113;SDS011;9689;51.052;13.772;2023-06-24T01:42:43;23.30;;;13.48;;
19113;SDS011;9689;51.052;13.772;2023-06-24T01:47:47;27.58;;;14.40;;
19113;SDS011;9689;51.052;13.772;2023-06-24T01:52:52;28.83;;;14.85;;
19113;SDS011;9689;51.052;13.772;2023-06-24T01:57:54;26.70;;;14.27;;
19113;SDS011;9689;51.052;13.772;2023-06-24T02:02:59;26.20;;;14.73;;
19113;SDS011;9689;51.052;13.772;2023-06-24T02:08:02;27.35;;;16.25;;
19113;SDS011;9689;51.052;13.772;2023-06-24T02:13:04;26.60;;;14.68;;
19113;SDS011;9689;51.052;13.772;2023-06-24T02:18:07;28.95;;;15.68;;
19113;SDS011;9689;51.052;13.772;2023-06-24T02:23:09;24.10;;;14.75;;
19113;SDS011;9689;51.052;13.772;2023-06-24T02:28:11;29.27;;;16.88;;
19113;SDS011;9689;51.052;13.772;2023-06-24T02:33:14;35.47;;;16.20;;
19113;SDS011;9689;51.052;13.772;2023-06-24T02:38:16;30.88;;;16.80;;
19113;SDS011;9689;51.052;13.772;2023-06-24T02:43:19;34.15;;;17.02;;
19113;SDS011;9689;51.052;13.772;2023-06-24T02:48:21;33.78;;;16.73;;
19113;SDS011;9689;51.052;13.772;2023-06-24T02:53:22;31.23;;;17.48;;
19113;SDS011;9689;51.052;13.772;2023-06-24T02:58:24;28.88;;;17.20;;
19113;SDS011;9689;51.052;13.772;2023-06-24T03:03:38;33.92;;;17.33;;
19113;SDS011;9689;51.052;13.772;2023-06-24T03:08:44;27.92;;;17.48;;
19113;SDS011;9689;51.052;13.772;2023-06-24T03:13:46;31.50;;;17.30;;
19113;SDS011;9689;51.052;13.772;2023-06-24T03:18:52;33.33;;;19.20;;
19113;SDS011;9689;51.052;13.772;2023-06-24T03:23:53;29.60;;;16.38;;
19113;SDS011;9689;51.052;13.772;2023-06-24T03:28:55;31.02;;;17.33;;
19113;SDS011;9689;51.052;13.772;2023-06-24T03:33:57;29.98;;;17.13;;
19113;SDS011;9689;51.052;13.772;2023-06-24T03:38:59;36.65;;;18.45;;
19113;SDS011;9689;51.052;13.772;2023-06-24T03:44:00;25.65;;;15.50;;
19113;SDS011;9689;51.052;13.772;2023-06-24T03:49:03;32.53;;;16.15;;
19113;SDS011;9689;51.052;13.772;2023-06-24T03:54:07;31.60;;;15.95;;
19113;SDS011;9689;51.052;13.772;2023-06-24T03:59:08;28.27;;;15.70;;
19113;SDS011;9689;51.052;13.772;2023-06-24T04:04:10;28.95;;;14.77;;
19113;SDS011;9689;51.052;13.772;2023-06-24T04:09:11;29.40;;;15.38;;
19113;SDS011;9689;51.052;13.772;2023-06-24T04:14:11;26.02;;;15.00;;
19113;SDS011;9689;51.052;13.772;2023-06-24T04:19:13;20.40;;;13.45;;
19113;SDS011;9689;51.052;13.772;2023-06-24T04:24:14;28.73;;;13.90;;
19113;SDS011;9689;51.052;13.772;2023-06-24T04:29:15;23.63;;;13.07;;
19113;SDS011;9689;51.052;13.772;2023-06-24T04:34:17;21.10;;;11.55;;
19113;SDS011;9689;51.052;13.772;2023-06-24T04:39:18;19.75;;;12.27;;
19113;SDS011;9689;51.052;13.772;2023-06-24T04:44:18;21.50;;;11.63;;
19113;SDS011;9689;51.052;13.772;2023-06-24T04:49:21;20.35;;;11.63;;
19113;SDS011;9689;51.052;13.772;2023-06-24T04:54:22;22.02;;;10.43;;
19113;SDS011;9689;51.052;13.772;2023-06-24T04:59:23;24.80;;;11.32;;
19113;SDS011;9689;51.052;13.772;2023-06-24T05:04:24;20.45;;;11.38;;
19113;SDS011;9689;51.052;13.772;2023-06-24T05:09:26;22.80;;;12.00;;
19113;SDS011;9689;51.052;13.772;2023-06-24T05:14:27;18.48;;;11.63;;
19113;SDS011;9689;51.052;13.772;2023-06-24T05:19:29;18.23;;;12.23;;
19113;SDS011;9689;51.052;13.772;2023-06-24T05:24:30;23.05;;;13.68;;
19113;SDS011;9689;51.052;13.772;2023-06-24T05:29:31;19.30;;;13.48;;
19113;SDS011;9689;51.052;13.772;2023-06-24T05:34:33;32.00;;;17.00;;
19113;SDS011;9689;51.052;13.772;2023-06-24T05:39:34;32.97;;;17.92;;
19113;SDS011;9689;51.052;13.772;2023-06-24T05:44:35;25.20;;;17.13;;
19113;SDS011;9689;51.052;13.772;2023-06-24T05:49:37;33.15;;;17.58;;
19113;SDS011;9689;51.052;13.772;2023-06-24T05:54:37;37.25;;;17.80;;
19113;SDS011;9689;51.052;13.772;2023-06-24T05:59:38;32.42;;;18.00;;
19113;SDS011;9689;51.052;13.772;2023-06-24T06:04:40;33.03;;;17.92;;
19113;SDS011;9689;51.052;13.772;2023-06-24T06:09:41;26.48;;;17.40;;
19113;SDS011;9689;51.052;13.772;2023-06-24T06:14:41;49.20;;;20.17;;
19113;SDS011;9689;51.052;13.772;2023-06-24T06:19:44;37.58;;;19.83;;
19113;SDS011;9689;51.052;13.772;2023-06-24T06:24:49;38.70;;;20.08;;
19113;SDS011;9689;51.052;13.772;2023-06-24T06:29:49;41.25;;;20.77;;
19113;SDS011;9689;51.052;13.772;2023-06-24T06:34:51;37.55;;;20.38;;
19113;SDS011;9689;51.052;13.772;2023-06-24T06:39:52;39.67;;;19.85;;
19113;SDS011;9689;51.052;13.772;2023-06-24T06:44:52;34.05;;;19.80;;
19113;SDS011;9689;51.052;13.772;2023-06-24T06:49:55;31.20;;;18.50;;
19113;SDS011;9689;51.052;13.772;2023-06-24T06:54:56;37.10;;;19.30;;
19113;SDS011;9689;51.052;13.772;2023-06-24T06:59:57;37.30;;;19.63;;
19113;SDS011;9689;51.052;13.772;2023-06-24T07:04:59;34.72;;;19.80;;
19113;SDS011;9689;51.052;13.772;2023-06-24T07:10:00;34.10;;;18.63;;
19113;SDS011;9689;51.052;13.772;2023-06-24T07:15:00;33.83;;;17.45;;
19113;SDS011;9689;51.052;13.772;2023-06-24T07:20:03;28.05;;;17.80;;
19113;SDS011;9689;51.052;13.772;2023-06-24T07:25:04;25.38;;;16.58;;
19113;SDS011;9689;51.052;13.772;2023-06-24T07:30:05;33.80;;;15.32;;
19113;SDS011;9689;51.052;13.772;2023-06-24T07:35:09;26.88;;;14.48;;
19113;SDS011;9689;51.052;13.772;2023-06-24T07:40:10;23.05;;;13.77;;
19113;SDS011;9689;51.052;13.772;2023-06-24T07:45:11;21.85;;;12.25;;
19113;SDS011;9689;51.052;13.772;2023-06-24T07:50:13;19.20;;;12.00;;
19113;SDS011;9689;51.052;13.772;2023-06-24T07:55:14;18.48;;;12.32;;
19113;SDS011;9689;51.052;13.772;2023-06-24T08:00:15;26.75;;;12.25;;
19113;SDS011;9689;51.052;13.772;2023-06-24T08:05:18;17.70;;;10.70;;
19113;SDS011;9689;51.052;13.772;2023-06-24T08:10:19;19.27;;;11.05;;
19113;SDS011;9689;51.052;13.772;2023-06-24T08:15:20;18.48;;;10.55;;
19113;SDS011;9689;51.052;13.772;2023-06-24T08:20:22;14.93;;;9.45;;
19113;SDS011;9689;51.052;13.772;2023-06-24T08:25:23;16.75;;;9.35;;
19113;SDS011;9689;51.052;13.772;2023-06-24T08:30:24;14.77;;;9.13;;
19113;SDS011;9689;51.052;13.772;2023-06-24T08:35:28;18.00;;;8.50;;
19113;SDS011;9689;51.052;13.772;2023-06-24T08:40:29;13.35;;;9.15;;
19113;SDS011;9689;51.052;13.772;2023-06-24T08:45:30;15.23;;;7.18;;
19113;SDS011;9689;51.052;13.772;2023-06-24T08:50:35;11.50;;;6.47;;
19113;SDS011;9689;51.052;13.772;2023-06-24T08:55:39;12.00;;;6.10;;
19113;SDS011;9689;51.052;13.772;2023-06-24T09:00:43;13.43;;;6.95;;
19113;SDS011;9689;51.052;13.772;2023-06-24T09:05:45;11.25;;;6.45;;
19113;SDS011;9689;51.052;13.772;2023-06-24T09:10:52;8.77;;;5.32;;
19113;SDS011;9689;51.052;13.772;2023-06-24T09:15:54;12.65;;;6.05;;
19113;SDS011;9689;51.052;13.772;2023-06-24T09:20:59;8.18;;;5.00;;
19113;SDS011;9689;51.052;13.772;2023-06-24T09:26:00;10.45;;;4.82;;
19113;SDS011;9689;51.052;13.772;2023-06-24T09:31:07;11.88;;;5.10;;
19113;SDS011;9689;51.052;13.772;2023-06-24T09:36:19;13.68;;;5.68;;
19113;SDS011;9689;51.052;13.772;2023-06-24T09:41:20;9.50;;;4.85;;
19113;SDS011;9689;51.052;13.772;2023-06-24T09:46:21;8.50;;;4.45;;
19113;SDS011;9689;51.052;13.772;2023-06-24T09:51:23;8.80;;;4.57;;
19113;SDS011;9689;51.052;13.772;2023-06-24T09:56:25;11.27;;;4.88;;
19113;SDS011;9689;51.052;13.772;2023-06-24T10:01:26;8.23;;;4.22;;
19113;SDS011;9689;51.052;13.772;2023-06-24T10:06:29;10.38;;;4.68;;
19113;SDS011;9689;51.052;13.772;2023-06-24T10:11:30;12.23;;;4.65;;
19113;SDS011;9689;51.052;13.772;2023-06-24T10:16:31;10.43;;;5.55;;
19113;SDS011;9689;51.052;13.772;2023-06-24T10:21:45;5.40;;;4.43;;
19113;SDS011;9689;51.052;13.772;2023-06-24T10:26:48;10.75;;;4.70;;
19113;SDS011;9689;51.052;13.772;2023-06-24T10:31:55;7.28;;;4.78;;
19113;SDS011;9689;51.052;13.772;2023-06-24T10:36:58;7.38;;;4.65;;
19113;SDS011;9689;51.052;13.772;2023-06-24T10:47:34;9.75;;;4.78;;
19113;SDS011;9689;51.052;13.772;2023-06-24T10:52:38;7.75;;;4.22;;
19113;SDS011;9689;51.052;13.772;2023-06-24T10:57:39;6.50;;;4.32;;
19113;SDS011;9689;51.052;13.772;2023-06-24T11:02:40;11.85;;;5.97;;
19113;SDS011;9689;51.052;13.772;2023-06-24T11:07:43;6.82;;;4.25;;
19113;SDS011;9689;51.052;13.772;2023-06-24T11:12:44;6.88;;;4.63;;
19113;SDS011;9689;51.052;13.772;2023-06-24T11:17:45;6.50;;;4.63;;
19113;SDS011;9689;51.052;13.772;2023-06-24T11:22:47;7.25;;;4.85;;
19113;SDS011;9689;51.052;13.772;2023-06-24T11:27:50;16.85;;;4.85;;
19113;SDS011;9689;51.052;13.772;2023-06-24T11:32:52;8.23;;;4.88;;
19113;SDS011;9689;51.052;13.772;2023-06-24T11:37:57;9.43;;;4.93;;
19113;SDS011;9689;51.052;13.772;2023-06-24T11:42:59;8.50;;;5.00;;
19113;SDS011;9689;51.052;13.772;2023-06-24T11:48:03;14.27;;;4.95;;
19113;SDS011;9689;51.052;13.772;2023-06-24T11:53:09;6.88;;;4.72;;
19113;SDS011;9689;51.052;13.772;2023-06-24T11:58:09;11.77;;;4.90;;
19113;SDS011;9689;51.052;13.772;2023-06-24T12:03:22;7.55;;;5.05;;
19113;SDS011;9689;51.052;13.772;2023-06-24T12:08:25;12.40;;;5.10;;
19113;SDS011;9689;51.052;13.772;2023-06-24T12:13:34;11.82;;;5.15;;
19113;SDS011;9689;51.052;13.772;2023-06-24T12:18:35;8.40;;;4.75;;
19113;SDS011;9689;51.052;13.772;2023-06-24T12:23:37;4.85;;;3.92;;
19113;SDS011;9689;51.052;13.772;2023-06-24T12:28:38;10.85;;;4.88;;
19113;SDS011;9689;51.052;13.772;2023-06-24T12:33:38;6.22;;;4.40;;
19113;SDS011;9689;51.052;13.772;2023-06-24T12:38:40;10.32;;;5.30;;
19113;SDS011;9689;51.052;13.772;2023-06-24T12:43:41;5.32;;;4.05;;
19113;SDS011;9689;51.052;13.772;2023-06-24T12:48:42;7.20;;;4.63;;
19113;SDS011;9689;51.052;13.772;2023-06-24T12:53:44;8.68;;;4.82;;
19113;SDS011;9689;51.052;13.772;2023-06-24T12:58:45;7.50;;;4.95;;
19113;SDS011;9689;51.052;13.772;2023-06-24T13:03:46;5.65;;;3.95;;
19113;SDS011;9689;51.052;13.772;2023-06-24T13:08:48;8.80;;;4.85;;
19113;SDS011;9689;51.052;13.772;2023-06-24T13:13:49;7.00;;;4.93;;
19113;SDS011;9689;51.052;13.772;2023-06-24T13:18:49;11.43;;;4.93;;
19113;SDS011;9689;51.052;13.772;2023-06-24T13:23:51;6.72;;;3.90;;
19113;SDS011;9689;51.052;13.772;2023-06-24T13:28:52;7.85;;;5.22;;
19113;SDS011;9689;51.052;13.772;2023-06-24T13:33:53;6.13;;;4.22;;
19113;SDS011;9689;51.052;13.772;2023-06-24T13:38:56;6.22;;;4.60;;
19113;SDS011;9689;51.052;13.772;2023-06-24T13:43:56;6.82;;;3.80;;
19113;SDS011;9689;51.052;13.772;2023-06-24T13:48:57;8.07;;;4.47;;
19113;SDS011;9689;51.052;13.772;2023-06-24T13:54:06;5.93;;;4.00;;
19113;SDS011;9689;51.052;13.772;2023-06-24T13:59:06;7.30;;;4.35;;
19113;SDS011;9689;51.052;13.772;2023-06-24T14:04:09;7.68;;;4.00;;
19113;SDS011;9689;51.052;13.772;2023-06-24T14:09:11;7.85;;;3.97;;
19113;SDS011;9689;51.052;13.772;2023-06-24T14:14:12;9.20;;;4.00;;
19113;SDS011;9689;51.052;13.772;2023-06-24T14:19:13;6.50;;;3.70;;
19113;SDS011;9689;51.052;13.772;2023-06-24T14:24:16;6.22;;;3.35;;
19113;SDS011;9689;51.052;13.772;2023-06-24T14:29:16;6.30;;;3.60;;
19113;SDS011;9689;51.052;13.772;2023-06-24T14:34:17;4.25;;;3.50;;
19113;SDS011;9689;51.052;13.772;2023-06-24T14:39:20;11.43;;;3.88;;
19113;SDS011;9689;51.052;13.772;2023-06-24T14:44:20;5.78;;;3.75;;
19113;SDS011;9689;51.052;13.772;2023-06-24T14:49:21;9.82;;;3.85;;
19113;SDS011;9689;51.052;13.772;2023-06-24T14:54:23;7.68;;;3.25;;
19113;SDS011;9689;51.052;13.772;2023-06-24T14:59:24;4.20;;;3.20;;
19113;SDS011;9689;51.052;13.772;2023-06-24T15:04:25;6.13;;;3.35;;
19113;SDS011;9689;51.052;13.772;2023-06-24T15:09:27;10.60;;;3.50;;
19113;SDS011;9689;51.052;13.772;2023-06-24T15:14:27;6.97;;;3.40;;
19113;SDS011;9689;51.052;13.772;2023-06-24T15:19:28;8.70;;;3.83;;
19113;SDS011;9689;51.052;13.772;2023-06-24T15:24:30;7.68;;;4.18;;
19113;SDS011;9689;51.052;13.772;2023-06-24T15:29:31;5.90;;;3.92;;
19113;SDS011;9689;51.052;13.772;2023-06-24T15:34:33;8.48;;;3.63;;
19113;SDS011;9689;51.052;13.772;2023-06-24T15:39:35;4.18;;;3.15;;
19113;SDS011;9689;51.052;13.772;2023-06-24T15:44:36;6.10;;;3.75;;
19113;SDS011;9689;51.052;13.772;2023-06-24T15:49:37;4.72;;;3.20;;
19113;SDS011;9689;51.052;13.772;2023-06-24T15:54:39;6.47;;;3.42;;
19113;SDS011;9689;51.052;13.772;2023-06-24T15:59:41;6.93;;;3.78;;
19113;SDS011;9689;51.052;13.772;2023-06-24T16:04:42;6.57;;;3.63;;
19113;SDS011;9689;51.052;13.772;2023-06-24T16:09:44;6.35;;;3.38;;
19113;SDS011;9689;51.052;13.772;2023-06-24T16:14:44;5.20;;;3.75;;
19113;SDS011;9689;51.052;13.772;2023-06-24T16:19:45;5.20;;;3.60;;
19113;SDS011;9689;51.052;13.772;2023-06-24T16:24:47;5.18;;;3.22;;
19113;SDS011;9689;51.052;13.772;2023-06-24T16:29:48;4.60;;;3.28;;
19113;SDS011;9689;51.052;13.772;2023-06-24T16:34:48;4.65;;;3.33;;
19113;SDS011;9689;51.052;13.772;2023-06-24T16:39:50;6.30;;;3.22;;
19113;SDS011;9689;51.052;13.772;2023-06-24T16:44:51;3.75;;;3.08;;
19113;SDS011;9689;51.052;13.772;2023-06-24T16:49:52;5.38;;;3.65;;
19113;SDS011;9689;51.052;13.772;2023-06-24T16:54:55;9.63;;;4.18;;
19113;SDS011;9689;51.052;13.772;2023-06-24T16:59:59;5.28;;;3.63;;
19113;SDS011;9689;51.052;13.772;2023-06-24T17:05:00;4.65;;;3.40;;
19113;SDS011;9689;51.052;13.772;2023-06-24T17:10:02;6.70;;;3.53;;
19113;SDS011;9689;51.052;13.772;2023-06-24T17:15:04;3.85;;;3.17;;
19113;SDS011;9689;51.052;13.772;2023-06-24T17:20:06;6.53;;;3.88;;
19113;SDS011;9689;51.052;13.772;2023-06-24T17:25:09;6.80;;;3.08;;
19113;SDS011;9689;51.052;13.772;2023-06-24T17:30:10;12.85;;;4.95;;
19113;SDS011;9689;51.052;13.772;2023-06-24T17:35:11;6.00;;;3.55;;
19113;SDS011;9689;51.052;13.772;2023-06-24T17:40:13;4.63;;;3.35;;
19113;SDS011;9689;51.052;13.772;2023-06-24T17:45:14;4.35;;;3.28;;
19113;SDS011;9689;51.052;13.772;2023-06-24T17:50:15;4.90;;;3.45;;
19113;SDS011;9689;51.052;13.772;2023-06-24T17:55:17;5.43;;;3.50;;
19113;SDS011;9689;51.052;13.772;2023-06-24T18:00:18;4.10;;;3.10;;
19113;SDS011;9689;51.052;13.772;2023-06-24T18:05:19;4.53;;;3.83;;
19113;SDS011;9689;51.052;13.772;2023-06-24T18:10:21;6.85;;;3.70;;
19113;SDS011;9689;51.052;13.772;2023-06-24T18:15:22;5.30;;;3.80;;
19113;SDS011;9689;51.052;13.772;2023-06-24T18:20:23;8.18;;;4.10;;
19113;SDS011;9689;51.052;13.772;2023-06-24T18:25:25;5.13;;;3.60;;
19113;SDS011;9689;51.052;13.772;2023-06-24T18:30:26;9.57;;;3.92;;
19113;SDS011;9689;51.052;13.772;2023-06-24T18:35:26;4.57;;;3.63;;
19113;SDS011;9689;51.052;13.772;2023-06-24T18:40:29;8.82;;;4.03;;
19113;SDS011;9689;51.052;13.772;2023-06-24T18:45:29;6.75;;;4.28;;
19113;SDS011;9689;51.052;13.772;2023-06-24T18:50:30;8.55;;;4.35;;
19113;SDS011;9689;51.052;13.772;2023-06-24T18:55:32;8.63;;;4.80;;
19113;SDS011;9689;51.052;13.772;2023-06-24T19:00:35;8.18;;;4.65;;
19113;SDS011;9689;51.052;13.772;2023-06-24T19:05:36;6.22;;;4.45;;
19113;SDS011;9689;51.052;13.772;2023-06-24T19:10:38;8.88;;;4.18;;
19113;SDS011;9689;51.052;13.772;2023-06-24T19:15:39;6.18;;;3.97;;
19113;SDS011;9689;51.052;13.772;2023-06-24T19:20:40;7.78;;;4.22;;
19113;SDS011;9689;51.052;13.772;2023-06-24T19:25:45;10.02;;;5.38;;
19113;SDS011;9689;51.052;13.772;2023-06-24T19:30:46;7.00;;;4.50;;
19113;SDS011;9689;51.052;13.772;2023-06-24T19:35:47;6.38;;;4.07;;
19113;SDS011;9689;51.052;13.772;2023-06-24T19:40:49;8.15;;;5.07;;
19113;SDS011;9689;51.052;13.772;2023-06-24T19:45:49;6.95;;;4.40;;
19113;SDS011;9689;51.052;13.772;2023-06-24T19:50:50;6.65;;;4.45;;
19113;SDS011;9689;51.052;13.772;2023-06-24T19:55:52;8.10;;;4.93;;
19113;SDS011;9689;51.052;13.772;2023-06-24T20:00:53;9.05;;;5.22;;
19113;SDS011;9689;51.052;13.772;2023-06-24T20:05:54;7.95;;;5.22;;
19113;SDS011;9689;51.052;13.772;2023-06-24T20:10:56;9.40;;;5.10;;
19113;SDS011;9689;51.052;13.772;2023-06-24T20:15:56;7.40;;;5.03;;
19113;SDS011;9689;51.052;13.772;2023-06-24T20:20:57;9.32;;;6.03;;
19113;SDS011;9689;51.052;13.772;2023-06-24T20:25:59;10.13;;;6.53;;
19113;SDS011;9689;51.052;13.772;2023-06-24T20:31:00;13.57;;;7.13;;
19113;SDS011;9689;51.052;13.772;2023-06-24T20:36:02;13.32;;;6.45;;
19113;SDS011;9689;51.052;13.772;2023-06-24T20:41:04;13.50;;;7.32;;
19113;SDS011;9689;51.052;13.772;2023-06-24T20:46:05;9.82;;;6.65;;
19113;SDS011;9689;51.052;13.772;2023-06-24T20:51:06;10.43;;;7.15;;
19113;SDS011;9689;51.052;13.772;2023-06-24T20:56:11;11.20;;;6.97;;
19113;SDS011;9689;51.052;13.772;2023-06-24T21:01:12;14.15;;;7.13;;
19113;SDS011;9689;51.052;13.772;2023-06-24T21:06:13;8.88;;;6.55;;
19113;SDS011;9689;51.052;13.772;2023-06-24T21:11:15;9.75;;;6.78;;
19113;SDS011;9689;51.052;13.772;2023-06-24T21:16:16;10.60;;;7.57;;
19113;SDS011;9689;51.052;13.772;2023-06-24T21:21:17;9.40;;;6.32;;
19113;SDS011;9689;51.052;13.772;2023-06-24T21:26:19;10.82;;;7.00;;
19113;SDS011;9689;51.052;13.772;2023-06-24T21:31:20;11.93;;;7.72;;
19113;SDS011;9689;51.052;13.772;2023-06-24T21:36:21;10.90;;;6.97;;
19113;SDS011;9689;51.052;13.772;2023-06-24T21:41:23;10.77;;;7.43;;
19113;SDS011;9689;51.052;13.772;2023-06-24T21:46:25;12.32;;;8.13;;
19113;SDS011;9689;51.052;13.772;2023-06-24T21:51:27;11.10;;;7.32;;
19113;SDS011;9689;51.052;13.772;2023-06-24T21:56:29;11.65;;;6.82;;
19113;SDS011;9689;51.052;13.772;2023-06-24T22:01:30;12.55;;;7.50;;
19113;SDS011;9689;51.052;13.772;2023-06-24T22:06:31;14.20;;;7.97;;
19113;SDS011;9689;51.052;13.772;2023-06-24T22:11:33;13.20;;;8.05;;
19113;SDS011;9689;51.052;13.772;2023-06-24T22:16:35;18.08;;;9.05;;
19113;SDS011;9689;51.052;13.772;2023-06-24T22:21:35;18.88;;;8.65;;
19113;SDS011;9689;51.052;13.772;2023-06-24T22:26:37;22.00;;;9.57;;
19113;SDS011;9689;51.052;13.772;2023-06-24T22:31:38;12.50;;;8.82;;
19113;SDS011;9689;51.052;13.772;2023-06-24T22:36:39;13.88;;;9.63;;
19113;SDS011;9689;51.052;13.772;2023-06-24T22:41:41;14.43;;;9.20;;
19113;SDS011;9689;51.052;13.772;2023-06-24T22:46:41;20.58;;;11.15;;
19113;SDS011;9689;51.052;13.772;2023-06-24T22:51:42;17.75;;;11.05;;
19113;SDS011;9689;51.052;13.772;2023-06-24T22:56:44;19.40;;;10.88;;
19113;SDS011;9689;51.052;13.772;2023-06-24T23:01:45;19.17;;;11.85;;
19113;SDS011;9689;51.052;13.772;2023-06-24T23:06:46;21.00;;;11.82;;
19113;SDS011;9689;51.052;13.772;2023-06-24T23:11:49;18.65;;;12.30;;
19113;SDS011;9689;51.052;13.772;2023-06-24T23:16:51;21.02;;;12.90;;
19113;SDS011;9689;51.052;13.772;2023-06-24T23:21:52;23.40;;;14.40;;
19113;SDS011;9689;51.052;13.772;2023-06-24T23:26:54;22.67;;;14.20;;
19113;SDS011;9689;51.052;13.772;2023-06-24T23:31:55;23.08;;;14.02;;
19113;SDS011;9689;51.052;13.772;2023-06-24T23:36:57;23.38;;;14.20;;
19113;SDS011;9689;51.052;13.772;2023-06-24T23:41:59;19.25;;;12.60;;
19113;SDS011;9689;51.052;13.772;2023-06-24T23:47:00;25.25;;;14.40;;
19113;SDS011;9689;51.052;13.772;2023-06-24T23:52:05;26.83;;;15.02;;
19113;SDS011;9689;51.052;13.772;2023-06-24T23:57:08;20.60;;;13.60;;
